createdAt,value
2023-01-22T00:02:06.539Z,29.0
2023-01-22T00:07:12.683Z,31.0
2023-01-22T00:12:18.882Z,28.0
2023-01-22T00:17:25.088Z,29.0
2023-01-22T00:22:31.296Z,27.0
2023-01-22T00:27:37.509Z,28.0
2023-01-22T00:32:43.717Z,28.0
2023-01-22T00:37:49.920Z,27.0
2023-01-22T00:42:55.158Z,28.0
2023-01-22T00:48:01.363Z,29.0
2023-01-22T00:53:06.601Z,27.0
2023-01-22T00:58:12.797Z,30.0
2023-01-22T01:03:19.027Z,29.0
2023-01-22T01:08:25.215Z,28.0
2023-01-22T01:13:31.423Z,28.0
2023-01-22T01:18:37.655Z,28.0
2023-01-22T01:23:43.847Z,28.0
2023-01-22T01:28:50.058Z,29.0
2023-01-22T01:33:56.248Z,28.5
2023-01-22T01:39:02.469Z,30.0
2023-01-22T01:44:08.659Z,25.0
2023-01-22T01:49:14.873Z,29.0
2023-01-22T01:54:21.075Z,29.0
2023-01-22T01:59:27.304Z,29.0
2023-01-22T02:04:33.487Z,29.0
2023-01-22T02:09:39.703Z,29.5
2023-01-22T02:14:45.926Z,28.5
2023-01-22T02:19:52.113Z,28.5
2023-01-22T02:24:58.319Z,28.0
2023-01-22T02:30:04.518Z,29.0
2023-01-22T02:35:10.748Z,25.0
2023-01-22T02:40:16.221Z,27.0
2023-01-22T02:45:22.287Z,26.0
2023-01-22T02:50:27.406Z,27.0
2023-01-22T02:55:33.619Z,24.0
2023-01-22T03:00:39.883Z,25.0
2023-01-22T03:05:46.028Z,24.0
2023-01-22T03:10:52.246Z,25.0
2023-01-22T03:15:58.460Z,24.0
2023-01-22T03:21:04.649Z,23.0
2023-01-22T03:26:10.877Z,24.0
2023-01-22T03:31:17.185Z,23.0
2023-01-22T03:36:23.267Z,23.0
2023-01-22T03:41:29.477Z,23.0
2023-01-22T03:46:35.689Z,23.5
2023-01-22T03:51:41.895Z,21.0
2023-01-22T03:56:48.094Z,21.0
2023-01-22T04:01:54.321Z,22.0
2023-01-22T04:07:00.507Z,20.0
2023-01-22T04:12:06.717Z,21.0
2023-01-22T04:17:12.959Z,21.0
2023-01-22T04:22:19.140Z,22.0
2023-01-22T04:27:25.338Z,20.0
2023-01-22T04:32:31.549Z,19.0
2023-01-22T04:37:36.781Z,19.0
2023-01-22T04:42:42.989Z,19.0
2023-01-22T04:47:49.197Z,18.0
2023-01-22T04:52:54.596Z,18.0
2023-01-22T04:58:00.676Z,18.0
2023-01-22T05:03:06.854Z,17.0
2023-01-22T05:08:13.062Z,17.0
2023-01-22T05:13:19.262Z,17.5
2023-01-22T05:18:25.463Z,17.0
2023-01-22T05:23:31.671Z,16.0
2023-01-22T05:28:37.873Z,16.0
2023-01-22T05:33:44.087Z,15.0
2023-01-22T05:38:50.289Z,16.0
2023-01-22T05:43:56.500Z,15.0
2023-01-22T05:49:02.717Z,14.0
2023-01-22T05:54:08.913Z,14.0
2023-01-22T05:59:15.121Z,15.0
2023-01-22T06:04:21.332Z,15.0
2023-01-22T06:09:27.540Z,15.0
2023-01-22T06:14:33.742Z,14.0
2023-01-22T06:19:39.947Z,14.0
2023-01-22T06:24:46.151Z,14.0
2023-01-22T06:29:52.363Z,15.0
2023-01-22T06:34:58.579Z,16.0
2023-01-22T06:40:03.802Z,16.0
2023-01-22T06:45:10.025Z,16.0
2023-01-22T06:50:15.336Z,17.0
2023-01-22T06:55:21.465Z,16.0
2023-01-22T07:00:27.662Z,16.0
2023-01-22T07:05:33.891Z,20.0
2023-01-22T07:10:40.078Z,18.0
2023-01-22T07:15:46.342Z,17.0
2023-01-22T07:20:52.490Z,18.0
2023-01-22T07:25:58.706Z,17.0
2023-01-22T07:31:04.972Z,16.0
2023-01-22T07:36:11.106Z,17.0
2023-01-22T07:41:25.944Z,16.0
2023-01-22T07:46:23.579Z,16.0
2023-01-22T07:51:29.731Z,16.0
2023-01-22T07:56:35.936Z,16.0
2023-01-22T08:01:42.254Z,15.5
2023-01-22T08:06:48.354Z,15.0
2023-01-22T08:11:54.557Z,16.0
2023-01-22T08:17:00.777Z,15.0
2023-01-22T08:22:06.977Z,14.0
2023-01-22T08:27:13.186Z,16.0
2023-01-22T08:32:19.530Z,14.0
2023-01-22T08:37:24.646Z,14.0
2023-01-22T08:42:30.860Z,13.5
2023-01-22T08:47:37.041Z,13.0
2023-01-22T08:52:43.263Z,13.0
2023-01-22T08:57:49.449Z,12.0
2023-01-22T09:02:55.674Z,13.0
2023-01-22T09:08:01.865Z,12.0
2023-01-22T09:13:08.065Z,12.0
2023-01-22T09:18:14.277Z,12.0
2023-01-22T09:23:20.497Z,12.0
2023-01-22T09:28:26.686Z,12.0
2023-01-22T09:33:32.949Z,12.0
2023-01-22T09:38:39.163Z,12.0
2023-01-22T09:43:45.317Z,12.0
2023-01-22T09:48:51.532Z,11.0
2023-01-22T09:53:57.741Z,13.0
2023-01-22T09:59:04.039Z,12.0
2023-01-22T10:04:10.154Z,12.0
2023-01-22T10:09:16.350Z,12.0
2023-01-22T10:14:22.563Z,12.0
2023-01-22T10:19:28.775Z,12.0
2023-01-22T10:24:34.976Z,12.0
2023-01-22T10:29:40.240Z,11.5
2023-01-22T10:34:46.415Z,12.0
2023-01-22T10:39:51.650Z,12.0
2023-01-22T10:44:57.858Z,12.0
2023-01-22T10:50:04.573Z,11.0
2023-01-22T10:55:09.303Z,11.0
2023-01-22T11:00:15.821Z,12.0
2023-01-22T11:05:21.716Z,10.0
2023-01-22T11:10:27.928Z,11.0
2023-01-22T11:15:34.150Z,11.0
2023-01-22T11:20:40.335Z,11.0
2023-01-22T11:25:46.591Z,11.0
2023-01-22T11:30:52.936Z,11.0
2023-01-22T11:35:58.962Z,11.0
2023-01-22T11:41:05.165Z,11.0
2023-01-22T11:46:11.388Z,11.0
2023-01-22T11:51:17.593Z,11.0
2023-01-22T11:56:23.795Z,11.0
2023-01-22T12:01:29.997Z,11.0
2023-01-22T12:06:36.208Z,11.0
2023-01-22T12:11:42.416Z,11.0
2023-01-22T12:16:48.615Z,11.0
2023-01-22T12:21:54.826Z,11.0
2023-01-22T12:27:01.192Z,12.0
2023-01-22T12:32:07.244Z,11.5
2023-01-22T12:37:12.472Z,11.0
2023-01-22T12:42:18.881Z,11.0
2023-01-22T12:47:23.917Z,12.0
2023-01-22T12:52:30.138Z,11.0
2023-01-22T12:57:36.339Z,11.0
2023-01-22T13:02:42.572Z,12.0
2023-01-22T13:07:48.752Z,12.0
2023-01-22T13:12:55.025Z,12.0
2023-01-22T13:18:07.893Z,13.0
2023-01-22T13:23:07.524Z,12.0
2023-01-22T13:28:13.580Z,13.0
2023-01-22T13:33:19.791Z,13.0
2023-01-22T13:38:26.003Z,13.0
2023-01-22T13:43:32.197Z,14.0
2023-01-22T13:48:38.406Z,13.0
2023-01-22T13:53:44.606Z,13.0
2023-01-22T13:58:50.835Z,13.0
2023-01-22T14:03:57.040Z,13.5
2023-01-22T14:09:03.239Z,14.0
2023-01-22T14:14:09.455Z,14.0
2023-01-22T14:19:15.645Z,14.0
2023-01-22T14:24:21.884Z,14.0
2023-01-22T14:29:28.206Z,14.0
2023-01-22T14:34:33.301Z,14.0
2023-01-22T14:39:39.521Z,15.0
2023-01-22T14:44:44.745Z,15.0
2023-01-22T14:49:50.946Z,15.0
2023-01-22T14:54:57.157Z,15.0
2023-01-22T15:00:03.364Z,16.0
2023-01-22T15:05:09.580Z,15.0
2023-01-22T15:10:15.789Z,15.0
2023-01-22T15:15:21.995Z,15.0
2023-01-22T15:20:28.235Z,16.5
2023-01-22T15:25:34.399Z,16.0
2023-01-22T15:30:40.655Z,17.0
2023-01-22T15:35:46.811Z,16.0
2023-01-22T15:40:53.020Z,15.0
2023-01-22T15:45:59.619Z,16.0
2023-01-22T15:51:05.467Z,16.0
2023-01-22T15:56:11.638Z,16.0
2023-01-22T16:01:17.864Z,16.0
2023-01-22T16:06:23.068Z,16.0
2023-01-22T16:11:29.292Z,16.0
2023-01-22T16:16:35.553Z,16.0
2023-01-22T16:21:41.702Z,16.0
2023-01-22T16:26:47.925Z,17.0
2023-01-22T16:31:53.196Z,17.0
2023-01-22T16:36:59.356Z,17.0
2023-01-22T16:42:04.586Z,18.0
2023-01-22T16:47:10.787Z,17.0
2023-01-22T16:52:22.399Z,17.0
2023-01-22T16:57:23.201Z,18.0
2023-01-22T17:02:29.455Z,17.0
2023-01-22T17:07:35.629Z,18.0
2023-01-22T17:12:41.836Z,19.0
2023-01-22T17:17:48.032Z,17.0
2023-01-22T17:22:54.235Z,18.0
2023-01-22T17:28:00.444Z,18.0
2023-01-22T17:33:06.650Z,18.0
2023-01-22T17:38:12.856Z,18.0
2023-01-22T17:43:19.065Z,17.5
2023-01-22T17:48:25.279Z,19.0
2023-01-22T17:53:31.478Z,19.0
2023-01-22T17:58:37.685Z,18.0
2023-01-22T18:03:43.894Z,18.0
2023-01-22T18:08:50.100Z,18.0
2023-01-22T18:13:56.308Z,20.0
2023-01-22T18:19:02.518Z,17.5
2023-01-22T18:24:08.718Z,19.0
2023-01-22T18:29:13.956Z,22.0
2023-01-22T18:34:20.165Z,19.0
2023-01-22T18:39:25.410Z,20.0
2023-01-22T18:44:31.606Z,20.0
2023-01-22T18:49:37.818Z,20.0
2023-01-22T18:54:44.029Z,20.0
2023-01-22T18:59:50.232Z,19.5
2023-01-22T19:04:56.437Z,21.5
2023-01-22T19:10:02.675Z,20.0
2023-01-22T19:15:08.850Z,21.0
2023-01-22T19:20:15.056Z,20.0
2023-01-22T19:25:21.551Z,20.0
2023-01-22T19:30:27.469Z,22.0
2023-01-22T19:35:33.759Z,21.0
2023-01-22T19:40:39.889Z,23.0
2023-01-22T19:45:46.111Z,22.0
2023-01-22T19:50:52.359Z,21.0
2023-01-22T19:55:58.511Z,23.0
2023-01-22T20:01:04.759Z,23.5
2023-01-22T20:06:10.950Z,24.0
2023-01-22T20:11:17.129Z,21.0
2023-01-22T20:16:23.440Z,22.5
2023-01-22T20:21:29.540Z,23.0
2023-01-22T20:26:34.796Z,23.0
2023-01-22T20:31:41.043Z,24.0
2023-01-22T20:36:46.222Z,22.0
2023-01-22T20:41:52.430Z,27.0
2023-01-22T20:46:58.650Z,27.0
2023-01-22T20:52:04.852Z,25.0
2023-01-22T20:57:11.051Z,25.0
2023-01-22T21:02:17.438Z,25.0
2023-01-22T21:07:23.469Z,27.0
2023-01-22T21:12:29.688Z,25.0
2023-01-22T21:17:35.896Z,25.0
2023-01-22T21:22:42.097Z,27.0
2023-01-22T21:27:50.888Z,28.0
2023-01-22T21:32:54.516Z,27.5
2023-01-22T21:38:00.715Z,28.0
2023-01-22T21:43:06.920Z,28.0
2023-01-22T21:48:13.120Z,26.0
2023-01-22T21:53:19.327Z,26.0
2023-01-22T21:58:25.536Z,26.0
2023-01-22T22:03:31.745Z,24.0
2023-01-22T22:08:37.961Z,26.0
2023-01-22T22:13:44.162Z,26.0
2023-01-22T22:18:50.401Z,24.0
2023-01-22T22:23:55.599Z,25.0
2023-01-22T22:29:01.815Z,26.0
2023-01-22T22:34:08.019Z,25.0
2023-01-22T22:39:13.252Z,26.0
2023-01-22T22:44:19.483Z,26.0
2023-01-22T22:49:25.666Z,26.0
2023-01-22T22:54:31.879Z,28.0
2023-01-22T22:59:38.088Z,27.0
2023-01-22T23:04:44.331Z,26.0
2023-01-22T23:09:50.514Z,27.0
2023-01-22T23:14:56.706Z,26.0
2023-01-22T23:20:02.914Z,26.0
2023-01-22T23:25:09.127Z,24.0
2023-01-22T23:30:15.333Z,26.0
2023-01-22T23:35:21.531Z,25.0
2023-01-22T23:40:27.738Z,27.5
2023-01-22T23:45:33.946Z,26.0
2023-01-22T23:50:40.152Z,27.0
2023-01-22T23:55:46.371Z,28.0
